KGAD/GAD METAR and TAF weather

Enter ICAO airport designator
Station Type Date Time Source
KGAD METAR 2020/12/06 01:56 UTC NOAA

KGAD 060156Z AUTO 22003KT 10SM CLR 02/02 A3011 RMK AO2 SLP205 T00220017 FZRANO


Station Type Date Time Source
KGAD Decoded METAR 2020/12/06 01:56 UTC NOAA

Gadsden, Gadsden Municipal Airport, AL, United States (KGAD) 33-58N 086-05W
Dec 05, 2020 - 08:56 PM EST / 2020.12.06 0156 UTC
Wind: from the SW (220 degrees) at 3 MPH (3 KT):0
Visibility: 10 mile(s):0
Sky conditions: clear
Temperature: 36.0 F (2.2 C)
Dew Point: 35.1 F (1.7 C)
Relative Humidity: 96%
Pressure (altimeter): 30.11 in. Hg (1019 hPa)
ob: KGAD 060156Z AUTO 22003KT 10SM CLR 02/02 A3011 RMK AO2 SLP205 T00220017 FZRANO
cycle: 2

Station Type Date Time Source
KGAD TAF UTC NOAA

Error!

Example: see airport list